sensor_id;sensor_type;location;lat;lon;timestamp;P1;durP1;ratioP1;P2;durP2;ratioP2
9807;SDS011;4943;52.550;13.462;2023-07-29T00:00:54;403.80;;;361.23;;
9807;SDS011;4943;52.550;13.462;2023-07-29T00:03:22;388.53;;;346.93;;
9807;SDS011;4943;52.550;13.462;2023-07-29T00:05:51;414.77;;;372.30;;
9807;SDS011;4943;52.550;13.462;2023-07-29T00:08:19;389.27;;;347.70;;
9807;SDS011;4943;52.550;13.462;2023-07-29T00:10:48;387.00;;;345.47;;
9807;SDS011;4943;52.550;13.462;2023-07-29T00:13:17;403.07;;;361.03;;
9807;SDS011;4943;52.550;13.462;2023-07-29T00:15:47;409.67;;;367.23;;
9807;SDS011;4943;52.550;13.462;2023-07-29T00:18:15;396.57;;;354.03;;
9807;SDS011;4943;52.550;13.462;2023-07-29T00:20:44;383.23;;;341.53;;
9807;SDS011;4943;52.550;13.462;2023-07-29T00:23:12;385.07;;;343.63;;
9807;SDS011;4943;52.550;13.462;2023-07-29T00:25:40;393.20;;;351.23;;
9807;SDS011;4943;52.550;13.462;2023-07-29T00:28:09;393.77;;;351.63;;
9807;SDS011;4943;52.550;13.462;2023-07-29T00:30:38;390.57;;;348.80;;
9807;SDS011;4943;52.550;13.462;2023-07-29T00:33:06;389.83;;;348.30;;
9807;SDS011;4943;52.550;13.462;2023-07-29T00:35:34;389.03;;;347.43;;
9807;SDS011;4943;52.550;13.462;2023-07-29T00:38:02;385.23;;;343.67;;
9807;SDS011;4943;52.550;13.462;2023-07-29T00:40:30;386.33;;;344.70;;
9807;SDS011;4943;52.550;13.462;2023-07-29T00:43:02;371.37;;;329.57;;
9807;SDS011;4943;52.550;13.462;2023-07-29T00:45:32;404.57;;;362.27;;
9807;SDS011;4943;52.550;13.462;2023-07-29T00:48:00;397.60;;;355.57;;
9807;SDS011;4943;52.550;13.462;2023-07-29T00:50:29;396.00;;;354.00;;
9807;SDS011;4943;52.550;13.462;2023-07-29T00:52:58;387.23;;;345.57;;
9807;SDS011;4943;52.550;13.462;2023-07-29T00:55:26;411.70;;;368.93;;
9807;SDS011;4943;52.550;13.462;2023-07-29T00:57:56;384.47;;;342.80;;
9807;SDS011;4943;52.550;13.462;2023-07-29T01:00:24;378.80;;;336.50;;
9807;SDS011;4943;52.550;13.462;2023-07-29T01:02:54;391.73;;;349.73;;
9807;SDS011;4943;52.550;13.462;2023-07-29T01:05:22;378.03;;;336.10;;
9807;SDS011;4943;52.550;13.462;2023-07-29T01:07:55;380.27;;;338.80;;
9807;SDS011;4943;52.550;13.462;2023-07-29T01:10:30;369.10;;;325.93;;
9807;SDS011;4943;52.550;13.462;2023-07-29T01:13:06;387.83;;;346.27;;
9807;SDS011;4943;52.550;13.462;2023-07-29T01:15:45;387.70;;;345.57;;
9807;SDS011;4943;52.550;13.462;2023-07-29T01:18:23;377.87;;;336.13;;
9807;SDS011;4943;52.550;13.462;2023-07-29T01:20:54;383.47;;;341.73;;
9807;SDS011;4943;52.550;13.462;2023-07-29T01:23:28;373.13;;;331.63;;
9807;SDS011;4943;52.550;13.462;2023-07-29T01:25:57;388.70;;;346.90;;
9807;SDS011;4943;52.550;13.462;2023-07-29T01:28:25;379.27;;;335.83;;
9807;SDS011;4943;52.550;13.462;2023-07-29T01:30:57;397.67;;;355.50;;
9807;SDS011;4943;52.550;13.462;2023-07-29T01:33:30;383.47;;;341.77;;
9807;SDS011;4943;52.550;13.462;2023-07-29T01:36:03;397.90;;;355.73;;
9807;SDS011;4943;52.550;13.462;2023-07-29T01:38:36;373.30;;;327.10;;
9807;SDS011;4943;52.550;13.462;2023-07-29T01:41:08;392.27;;;350.00;;
9807;SDS011;4943;52.550;13.462;2023-07-29T01:43:36;376.80;;;335.20;;
9807;SDS011;4943;52.550;13.462;2023-07-29T01:46:10;380.37;;;338.47;;
9807;SDS011;4943;52.550;13.462;2023-07-29T01:48:39;371.70;;;323.97;;
9807;SDS011;4943;52.550;13.462;2023-07-29T01:51:07;369.70;;;328.23;;
9807;SDS011;4943;52.550;13.462;2023-07-29T01:53:39;374.93;;;330.80;;
9807;SDS011;4943;52.550;13.462;2023-07-29T01:56:07;374.37;;;331.80;;
9807;SDS011;4943;52.550;13.462;2023-07-29T01:58:35;374.57;;;331.73;;
9807;SDS011;4943;52.550;13.462;2023-07-29T02:01:03;373.83;;;332.00;;
9807;SDS011;4943;52.550;13.462;2023-07-29T02:03:31;369.47;;;323.60;;
9807;SDS011;4943;52.550;13.462;2023-07-29T02:05:59;367.77;;;317.27;;
9807;SDS011;4943;52.550;13.462;2023-07-29T02:08:27;375.40;;;331.37;;
9807;SDS011;4943;52.550;13.462;2023-07-29T02:10:56;371.90;;;328.73;;
9807;SDS011;4943;52.550;13.462;2023-07-29T02:13:24;372.33;;;328.03;;
9807;SDS011;4943;52.550;13.462;2023-07-29T02:15:53;368.73;;;316.10;;
9807;SDS011;4943;52.550;13.462;2023-07-29T02:18:21;371.70;;;327.00;;
9807;SDS011;4943;52.550;13.462;2023-07-29T02:20:49;377.77;;;332.23;;
9807;SDS011;4943;52.550;13.462;2023-07-29T02:23:17;384.47;;;342.13;;
9807;SDS011;4943;52.550;13.462;2023-07-29T02:25:45;368.30;;;318.10;;
9807;SDS011;4943;52.550;13.462;2023-07-29T02:28:15;373.10;;;329.50;;
9807;SDS011;4943;52.550;13.462;2023-07-29T02:30:43;367.23;;;311.00;;
9807;SDS011;4943;52.550;13.462;2023-07-29T02:33:11;375.77;;;323.47;;
9807;SDS011;4943;52.550;13.462;2023-07-29T02:35:40;368.13;;;316.30;;
9807;SDS011;4943;52.550;13.462;2023-07-29T02:38:08;373.53;;;328.57;;
9807;SDS011;4943;52.550;13.462;2023-07-29T02:40:37;370.77;;;317.93;;
9807;SDS011;4943;52.550;13.462;2023-07-29T02:43:05;375.00;;;332.00;;
9807;SDS011;4943;52.550;13.462;2023-07-29T02:45:34;371.90;;;329.03;;
9807;SDS011;4943;52.550;13.462;2023-07-29T02:48:02;372.33;;;328.93;;
9807;SDS011;4943;52.550;13.462;2023-07-29T02:50:31;373.63;;;323.87;;
9807;SDS011;4943;52.550;13.462;2023-07-29T02:53:01;370.67;;;319.47;;
9807;SDS011;4943;52.550;13.462;2023-07-29T02:55:29;368.03;;;313.20;;
9807;SDS011;4943;52.550;13.462;2023-07-29T02:57:57;366.43;;;302.50;;
9807;SDS011;4943;52.550;13.462;2023-07-29T03:00:25;365.40;;;311.33;;
9807;SDS011;4943;52.550;13.462;2023-07-29T03:02:55;366.77;;;306.37;;
9807;SDS011;4943;52.550;13.462;2023-07-29T03:05:23;369.10;;;318.97;;
9807;SDS011;4943;52.550;13.462;2023-07-29T03:07:51;373.00;;;326.33;;
9807;SDS011;4943;52.550;13.462;2023-07-29T03:10:19;362.50;;;301.63;;
9807;SDS011;4943;52.550;13.462;2023-07-29T03:12:48;365.80;;;307.33;;
9807;SDS011;4943;52.550;13.462;2023-07-29T03:15:17;369.70;;;306.33;;
9807;SDS011;4943;52.550;13.462;2023-07-29T03:17:45;374.20;;;316.63;;
9807;SDS011;4943;52.550;13.462;2023-07-29T03:20:14;368.40;;;307.33;;
9807;SDS011;4943;52.550;13.462;2023-07-29T03:22:44;366.63;;;303.70;;
9807;SDS011;4943;52.550;13.462;2023-07-29T03:25:12;368.17;;;315.43;;
9807;SDS011;4943;52.550;13.462;2023-07-29T03:27:40;366.37;;;308.00;;
9807;SDS011;4943;52.550;13.462;2023-07-29T03:30:09;363.47;;;305.73;;
9807;SDS011;4943;52.550;13.462;2023-07-29T03:32:39;369.23;;;310.87;;
9807;SDS011;4943;52.550;13.462;2023-07-29T03:35:11;362.67;;;300.90;;
9807;SDS011;4943;52.550;13.462;2023-07-29T03:37:41;359.00;;;295.40;;
9807;SDS011;4943;52.550;13.462;2023-07-29T03:40:09;370.17;;;306.83;;
9807;SDS011;4943;52.550;13.462;2023-07-29T03:42:37;369.57;;;322.20;;
9807;SDS011;4943;52.550;13.462;2023-07-29T03:45:06;364.43;;;304.30;;
9807;SDS011;4943;52.550;13.462;2023-07-29T03:47:34;367.63;;;313.50;;
9807;SDS011;4943;52.550;13.462;2023-07-29T03:50:03;367.00;;;316.03;;
9807;SDS011;4943;52.550;13.462;2023-07-29T03:52:31;366.83;;;314.37;;
9807;SDS011;4943;52.550;13.462;2023-07-29T03:55:01;368.20;;;312.50;;
9807;SDS011;4943;52.550;13.462;2023-07-29T03:57:29;364.83;;;314.10;;
9807;SDS011;4943;52.550;13.462;2023-07-29T03:59:57;366.80;;;317.37;;
9807;SDS011;4943;52.550;13.462;2023-07-29T04:02:26;368.73;;;321.00;;
9807;SDS011;4943;52.550;13.462;2023-07-29T04:04:54;369.73;;;322.73;;
9807;SDS011;4943;52.550;13.462;2023-07-29T04:07:22;368.20;;;322.87;;
9807;SDS011;4943;52.550;13.462;2023-07-29T04:09:51;368.30;;;323.67;;
9807;SDS011;4943;52.550;13.462;2023-07-29T04:12:20;370.40;;;320.47;;
9807;SDS011;4943;52.550;13.462;2023-07-29T04:14:48;367.47;;;319.27;;
9807;SDS011;4943;52.550;13.462;2023-07-29T04:17:16;370.87;;;320.20;;
9807;SDS011;4943;52.550;13.462;2023-07-29T04:19:44;363.73;;;312.67;;
9807;SDS011;4943;52.550;13.462;2023-07-29T04:22:13;366.07;;;315.43;;
9807;SDS011;4943;52.550;13.462;2023-07-29T04:24:42;364.60;;;307.03;;
9807;SDS011;4943;52.550;13.462;2023-07-29T04:27:10;371.43;;;324.73;;
9807;SDS011;4943;52.550;13.462;2023-07-29T04:29:40;377.73;;;336.10;;
9807;SDS011;4943;52.550;13.462;2023-07-29T04:32:08;377.00;;;335.70;;
9807;SDS011;4943;52.550;13.462;2023-07-29T04:34:36;371.97;;;330.93;;
9807;SDS011;4943;52.550;13.462;2023-07-29T04:37:04;371.93;;;330.43;;
9807;SDS011;4943;52.550;13.462;2023-07-29T04:39:32;368.03;;;316.63;;
9807;SDS011;4943;52.550;13.462;2023-07-29T04:42:00;368.40;;;327.57;;
9807;SDS011;4943;52.550;13.462;2023-07-29T04:44:28;396.97;;;354.87;;
9807;SDS011;4943;52.550;13.462;2023-07-29T04:46:58;384.87;;;343.03;;
9807;SDS011;4943;52.550;13.462;2023-07-29T04:49:26;404.77;;;362.53;;
9807;SDS011;4943;52.550;13.462;2023-07-29T04:51:54;389.07;;;347.50;;
9807;SDS011;4943;52.550;13.462;2023-07-29T04:54:22;388.33;;;346.30;;
9807;SDS011;4943;52.550;13.462;2023-07-29T04:56:50;394.77;;;353.00;;
9807;SDS011;4943;52.550;13.462;2023-07-29T04:59:18;398.17;;;356.40;;
9807;SDS011;4943;52.550;13.462;2023-07-29T05:01:46;404.07;;;362.07;;
9807;SDS011;4943;52.550;13.462;2023-07-29T05:04:16;396.90;;;355.10;;
9807;SDS011;4943;52.550;13.462;2023-07-29T05:06:44;419.37;;;376.67;;
9807;SDS011;4943;52.550;13.462;2023-07-29T05:09:12;413.30;;;371.07;;
9807;SDS011;4943;52.550;13.462;2023-07-29T05:11:41;409.03;;;366.50;;
9807;SDS011;4943;52.550;13.462;2023-07-29T05:14:13;419.07;;;375.83;;
9807;SDS011;4943;52.550;13.462;2023-07-29T05:16:42;426.90;;;384.03;;
9807;SDS011;4943;52.550;13.462;2023-07-29T05:19:10;430.40;;;387.33;;
9807;SDS011;4943;52.550;13.462;2023-07-29T05:21:40;443.87;;;400.40;;
9807;SDS011;4943;52.550;13.462;2023-07-29T05:24:08;428.77;;;385.73;;
9807;SDS011;4943;52.550;13.462;2023-07-29T05:26:36;439.03;;;395.90;;
9807;SDS011;4943;52.550;13.462;2023-07-29T05:29:05;421.40;;;378.57;;
9807;SDS011;4943;52.550;13.462;2023-07-29T05:31:33;430.37;;;387.27;;
9807;SDS011;4943;52.550;13.462;2023-07-29T05:34:01;439.60;;;396.40;;
9807;SDS011;4943;52.550;13.462;2023-07-29T05:36:29;467.70;;;423.60;;
9807;SDS011;4943;52.550;13.462;2023-07-29T05:38:59;442.60;;;399.47;;
9807;SDS011;4943;52.550;13.462;2023-07-29T05:41:27;442.10;;;398.83;;
9807;SDS011;4943;52.550;13.462;2023-07-29T05:43:55;439.53;;;396.47;;
9807;SDS011;4943;52.550;13.462;2023-07-29T05:46:23;468.73;;;424.77;;
9807;SDS011;4943;52.550;13.462;2023-07-29T05:48:51;461.30;;;417.43;;
9807;SDS011;4943;52.550;13.462;2023-07-29T05:51:19;451.20;;;407.77;;
9807;SDS011;4943;52.550;13.462;2023-07-29T05:53:47;460.37;;;416.63;;
9807;SDS011;4943;52.550;13.462;2023-07-29T05:56:17;453.17;;;409.67;;
9807;SDS011;4943;52.550;13.462;2023-07-29T05:58:45;455.90;;;412.20;;
9807;SDS011;4943;52.550;13.462;2023-07-29T06:01:13;455.47;;;411.97;;
9807;SDS011;4943;52.550;13.462;2023-07-29T06:03:41;441.57;;;398.10;;
9807;SDS011;4943;52.550;13.462;2023-07-29T06:06:09;482.00;;;437.27;;
9807;SDS011;4943;52.550;13.462;2023-07-29T06:08:37;447.80;;;404.37;;
9807;SDS011;4943;52.550;13.462;2023-07-29T06:11:05;459.30;;;415.23;;
9807;SDS011;4943;52.550;13.462;2023-07-29T06:13:35;447.10;;;403.70;;
9807;SDS011;4943;52.550;13.462;2023-07-29T06:16:03;451.87;;;408.27;;
9807;SDS011;4943;52.550;13.462;2023-07-29T06:18:31;460.87;;;417.20;;
9807;SDS011;4943;52.550;13.462;2023-07-29T06:20:59;456.43;;;412.93;;
9807;SDS011;4943;52.550;13.462;2023-07-29T06:23:27;454.43;;;410.93;;
9807;SDS011;4943;52.550;13.462;2023-07-29T06:25:55;469.43;;;425.60;;
9807;SDS011;4943;52.550;13.462;2023-07-29T06:28:23;468.13;;;424.43;;
9807;SDS011;4943;52.550;13.462;2023-07-29T06:30:53;453.60;;;410.07;;
9807;SDS011;4943;52.550;13.462;2023-07-29T06:33:21;489.87;;;444.97;;
9807;SDS011;4943;52.550;13.462;2023-07-29T06:35:49;475.97;;;431.77;;
9807;SDS011;4943;52.550;13.462;2023-07-29T06:38:17;452.27;;;408.90;;
9807;SDS011;4943;52.550;13.462;2023-07-29T06:40:48;484.70;;;440.43;;
9807;SDS011;4943;52.550;13.462;2023-07-29T06:43:16;472.80;;;428.80;;
9807;SDS011;4943;52.550;13.462;2023-07-29T06:45:44;482.77;;;438.67;;
9807;SDS011;4943;52.550;13.462;2023-07-29T06:48:13;490.73;;;446.17;;
9807;SDS011;4943;52.550;13.462;2023-07-29T06:50:41;481.23;;;437.03;;
9807;SDS011;4943;52.550;13.462;2023-07-29T06:53:10;470.37;;;426.47;;
9807;SDS011;4943;52.550;13.462;2023-07-29T06:55:38;472.10;;;428.17;;
9807;SDS011;4943;52.550;13.462;2023-07-29T06:58:06;486.67;;;442.40;;
9807;SDS011;4943;52.550;13.462;2023-07-29T07:00:34;516.57;;;471.47;;
9807;SDS011;4943;52.550;13.462;2023-07-29T07:03:02;521.00;;;475.73;;
9807;SDS011;4943;52.550;13.462;2023-07-29T07:05:34;520.60;;;474.90;;
9807;SDS011;4943;52.550;13.462;2023-07-29T07:08:02;533.23;;;487.70;;
9807;SDS011;4943;52.550;13.462;2023-07-29T07:10:34;536.03;;;490.23;;
9807;SDS011;4943;52.550;13.462;2023-07-29T07:13:02;538.57;;;492.43;;
9807;SDS011;4943;52.550;13.462;2023-07-29T07:15:30;538.77;;;492.90;;
9807;SDS011;4943;52.550;13.462;2023-07-29T07:17:59;560.07;;;513.57;;
9807;SDS011;4943;52.550;13.462;2023-07-29T07:20:27;556.93;;;510.40;;
9807;SDS011;4943;52.550;13.462;2023-07-29T07:22:57;569.87;;;522.70;;
9807;SDS011;4943;52.550;13.462;2023-07-29T07:25:26;569.00;;;522.27;;
9807;SDS011;4943;52.550;13.462;2023-07-29T07:27:54;551.40;;;505.13;;
9807;SDS011;4943;52.550;13.462;2023-07-29T07:30:22;571.63;;;524.57;;
9807;SDS011;4943;52.550;13.462;2023-07-29T07:32:50;580.33;;;533.20;;
9807;SDS011;4943;52.550;13.462;2023-07-29T07:35:19;569.37;;;522.77;;
9807;SDS011;4943;52.550;13.462;2023-07-29T07:37:47;576.13;;;528.63;;
9807;SDS011;4943;52.550;13.462;2023-07-29T07:40:17;579.83;;;532.97;;
9807;SDS011;4943;52.550;13.462;2023-07-29T07:42:45;591.23;;;543.97;;
9807;SDS011;4943;52.550;13.462;2023-07-29T07:45:13;589.33;;;542.10;;
9807;SDS011;4943;52.550;13.462;2023-07-29T07:47:41;585.28;;;538.30;;
9807;SDS011;4943;52.550;13.462;2023-07-29T07:50:09;584.00;;;537.08;;
9807;SDS011;4943;52.550;13.462;2023-07-29T07:52:40;611.35;;;563.42;;
9807;SDS011;4943;52.550;13.462;2023-07-29T07:55:09;591.25;;;543.70;;
9807;SDS011;4943;52.550;13.462;2023-07-29T07:57:38;616.10;;;567.90;;
9807;SDS011;4943;52.550;13.462;2023-07-29T08:00:06;587.92;;;540.88;;
9807;SDS011;4943;52.550;13.462;2023-07-29T08:02:35;602.15;;;554.35;;
9807;SDS011;4943;52.550;13.462;2023-07-29T08:05:04;610.08;;;562.33;;
9807;SDS011;4943;52.550;13.462;2023-07-29T08:07:32;598.28;;;550.45;;
9807;SDS011;4943;52.550;13.462;2023-07-29T08:10:00;599.05;;;551.47;;
9807;SDS011;4943;52.550;13.462;2023-07-29T08:12:29;599.83;;;551.90;;
9807;SDS011;4943;52.550;13.462;2023-07-29T08:14:58;606.28;;;558.67;;
9807;SDS011;4943;52.550;13.462;2023-07-29T08:17:26;611.22;;;563.35;;
9807;SDS011;4943;52.550;13.462;2023-07-29T08:19:55;609.35;;;561.60;;
9807;SDS011;4943;52.550;13.462;2023-07-29T08:22:23;617.38;;;569.28;;
9807;SDS011;4943;52.550;13.462;2023-07-29T08:24:51;628.53;;;580.13;;
9807;SDS011;4943;52.550;13.462;2023-07-29T08:27:19;621.10;;;573.05;;
9807;SDS011;4943;52.550;13.462;2023-07-29T08:29:47;626.28;;;578.08;;
9807;SDS011;4943;52.550;13.462;2023-07-29T08:32:16;651.20;;;602.13;;
9807;SDS011;4943;52.550;13.462;2023-07-29T08:34:44;644.38;;;595.78;;
9807;SDS011;4943;52.550;13.462;2023-07-29T08:37:12;671.50;;;621.63;;
9807;SDS011;4943;52.550;13.462;2023-07-29T08:39:40;675.13;;;625.38;;
9807;SDS011;4943;52.550;13.462;2023-07-29T08:42:08;669.72;;;620.47;;
9807;SDS011;4943;52.550;13.462;2023-07-29T08:44:40;672.92;;;623.45;;
9807;SDS011;4943;52.550;13.462;2023-07-29T08:47:09;674.60;;;625.00;;
9807;SDS011;4943;52.550;13.462;2023-07-29T08:49:41;670.17;;;620.90;;
9807;SDS011;4943;52.550;13.462;2023-07-29T08:52:11;685.70;;;635.85;;
9807;SDS011;4943;52.550;13.462;2023-07-29T08:54:39;679.15;;;629.63;;
9807;SDS011;4943;52.550;13.462;2023-07-29T08:57:07;679.95;;;630.30;;
9807;SDS011;4943;52.550;13.462;2023-07-29T08:59:36;692.05;;;642.08;;
9807;SDS011;4943;52.550;13.462;2023-07-29T09:02:05;680.58;;;630.92;;
9807;SDS011;4943;52.550;13.462;2023-07-29T09:04:34;671.63;;;622.53;;
9807;SDS011;4943;52.550;13.462;2023-07-29T09:07:04;673.47;;;624.10;;
9807;SDS011;4943;52.550;13.462;2023-07-29T09:09:33;668.67;;;619.53;;
9807;SDS011;4943;52.550;13.462;2023-07-29T09:12:01;658.88;;;610.25;;
9807;SDS011;4943;52.550;13.462;2023-07-29T09:14:29;678.70;;;629.10;;
9807;SDS011;4943;52.550;13.462;2023-07-29T09:16:57;705.30;;;654.92;;
9807;SDS011;4943;52.550;13.462;2023-07-29T09:19:26;720.17;;;669.42;;
9807;SDS011;4943;52.550;13.462;2023-07-29T09:21:54;711.67;;;660.65;;
9807;SDS011;4943;52.550;13.462;2023-07-29T09:24:24;717.92;;;667.42;;
9807;SDS011;4943;52.550;13.462;2023-07-29T09:26:55;718.97;;;668.47;;
9807;SDS011;4943;52.550;13.462;2023-07-29T09:29:24;718.22;;;667.92;;
9807;SDS011;4943;52.550;13.462;2023-07-29T09:32:06;708.17;;;657.63;;
9807;SDS011;4943;52.550;13.462;2023-07-29T09:34:45;713.25;;;663.05;;
9807;SDS011;4943;52.550;13.462;2023-07-29T09:37:17;731.40;;;680.35;;
9807;SDS011;4943;52.550;13.462;2023-07-29T09:39:49;728.13;;;677.65;;
9807;SDS011;4943;52.550;13.462;2023-07-29T09:42:18;742.05;;;691.05;;
9807;SDS011;4943;52.550;13.462;2023-07-29T09:44:48;714.42;;;664.53;;
9807;SDS011;4943;52.550;13.462;2023-07-29T09:47:20;724.00;;;673.85;;
9807;SDS011;4943;52.550;13.462;2023-07-29T09:49:49;726.10;;;675.38;;
9807;SDS011;4943;52.550;13.462;2023-07-29T09:52:17;741.85;;;690.88;;
9807;SDS011;4943;52.550;13.462;2023-07-29T09:54:47;745.65;;;694.85;;
9807;SDS011;4943;52.550;13.462;2023-07-29T09:57:17;738.28;;;687.50;;
9807;SDS011;4943;52.550;13.462;2023-07-29T09:59:52;738.35;;;687.60;;
9807;SDS011;4943;52.550;13.462;2023-07-29T10:02:22;734.03;;;683.25;;
9807;SDS011;4943;52.550;13.462;2023-07-29T10:04:52;753.80;;;702.53;;
9807;SDS011;4943;52.550;13.462;2023-07-29T10:07:20;749.22;;;698.15;;
9807;SDS011;4943;52.550;13.462;2023-07-29T10:09:49;727.58;;;677.35;;
9807;SDS011;4943;52.550;13.462;2023-07-29T10:12:21;726.10;;;675.88;;
9807;SDS011;4943;52.550;13.462;2023-07-29T10:14:50;722.88;;;673.03;;
9807;SDS011;4943;52.550;13.462;2023-07-29T10:17:18;752.67;;;701.60;;
9807;SDS011;4943;52.550;13.462;2023-07-29T10:19:48;769.92;;;718.22;;
9807;SDS011;4943;52.550;13.462;2023-07-29T10:22:17;770.38;;;718.50;;
9807;SDS011;4943;52.550;13.462;2023-07-29T10:24:48;758.33;;;706.97;;
9807;SDS011;4943;52.550;13.462;2023-07-29T10:27:18;757.38;;;706.13;;
9807;SDS011;4943;52.550;13.462;2023-07-29T10:29:49;774.80;;;722.85;;
9807;SDS011;4943;52.550;13.462;2023-07-29T10:32:18;769.28;;;717.75;;
9807;SDS011;4943;52.550;13.462;2023-07-29T10:34:52;777.35;;;725.38;;
9807;SDS011;4943;52.550;13.462;2023-07-29T10:37:20;768.08;;;716.35;;
9807;SDS011;4943;52.550;13.462;2023-07-29T10:39:53;762.15;;;710.78;;
9807;SDS011;4943;52.550;13.462;2023-07-29T10:42:23;763.17;;;711.95;;
9807;SDS011;4943;52.550;13.462;2023-07-29T10:44:51;765.80;;;714.13;;
9807;SDS011;4943;52.550;13.462;2023-07-29T10:47:21;771.80;;;720.22;;
9807;SDS011;4943;52.550;13.462;2023-07-29T10:49:51;783.97;;;731.70;;
9807;SDS011;4943;52.550;13.462;2023-07-29T10:52:31;784.75;;;732.58;;
9807;SDS011;4943;52.550;13.462;2023-07-29T10:55:23;768.35;;;716.88;;
9807;SDS011;4943;52.550;13.462;2023-07-29T10:58:05;785.90;;;733.75;;
9807;SDS011;4943;52.550;13.462;2023-07-29T11:00:34;778.25;;;726.50;;
9807;SDS011;4943;52.550;13.462;2023-07-29T11:03:03;762.25;;;710.88;;
9807;SDS011;4943;52.550;13.462;2023-07-29T11:05:48;769.00;;;717.40;;
9807;SDS011;4943;52.550;13.462;2023-07-29T11:08:18;755.60;;;704.33;;
9807;SDS011;4943;52.550;13.462;2023-07-29T11:10:57;759.65;;;708.15;;
9807;SDS011;4943;52.550;13.462;2023-07-29T11:13:32;743.63;;;692.60;;
9807;SDS011;4943;52.550;13.462;2023-07-29T11:16:01;739.90;;;688.75;;
9807;SDS011;4943;52.550;13.462;2023-07-29T11:18:30;738.53;;;687.40;;
9807;SDS011;4943;52.550;13.462;2023-07-29T11:21:00;709.25;;;659.13;;
9807;SDS011;4943;52.550;13.462;2023-07-29T11:23:30;701.15;;;651.05;;
9807;SDS011;4943;52.550;13.462;2023-07-29T11:26:00;722.47;;;671.63;;
9807;SDS011;4943;52.550;13.462;2023-07-29T11:28:29;686.88;;;636.95;;
9807;SDS011;4943;52.550;13.462;2023-07-29T11:30:59;669.58;;;620.15;;
9807;SDS011;4943;52.550;13.462;2023-07-29T11:33:27;663.35;;;613.80;;
9807;SDS011;4943;52.550;13.462;2023-07-29T11:35:55;638.27;;;589.57;;
9807;SDS011;4943;52.550;13.462;2023-07-29T11:38:24;610.00;;;562.43;;
9807;SDS011;4943;52.550;13.462;2023-07-29T11:40:54;613.10;;;565.00;;
9807;SDS011;4943;52.550;13.462;2023-07-29T11:43:23;616.17;;;567.63;;
9807;SDS011;4943;52.550;13.462;2023-07-29T11:45:53;616.30;;;568.07;;
9807;SDS011;4943;52.550;13.462;2023-07-29T11:48:31;597.47;;;549.73;;
9807;SDS011;4943;52.550;13.462;2023-07-29T11:51:00;575.80;;;528.80;;
9807;SDS011;4943;52.550;13.462;2023-07-29T11:53:29;584.87;;;537.43;;
9807;SDS011;4943;52.550;13.462;2023-07-29T11:55:58;578.00;;;531.20;;
9807;SDS011;4943;52.550;13.462;2023-07-29T11:58:26;570.43;;;523.83;;
9807;SDS011;4943;52.550;13.462;2023-07-29T12:00:54;564.43;;;517.97;;
9807;SDS011;4943;52.550;13.462;2023-07-29T12:03:23;571.20;;;524.03;;
9807;SDS011;4943;52.550;13.462;2023-07-29T12:05:53;574.77;;;528.20;;
9807;SDS011;4943;52.550;13.462;2023-07-29T12:08:22;590.80;;;543.60;;
9807;SDS011;4943;52.550;13.462;2023-07-29T12:10:51;588.57;;;541.70;;
9807;SDS011;4943;52.550;13.462;2023-07-29T12:13:23;604.67;;;557.33;;
9807;SDS011;4943;52.550;13.462;2023-07-29T12:15:51;593.47;;;546.53;;
9807;SDS011;4943;52.550;13.462;2023-07-29T12:18:20;595.47;;;548.63;;
9807;SDS011;4943;52.550;13.462;2023-07-29T12:20:58;605.90;;;558.63;;
9807;SDS011;4943;52.550;13.462;2023-07-29T12:23:27;598.40;;;551.10;;
9807;SDS011;4943;52.550;13.462;2023-07-29T12:25:57;583.77;;;537.13;;
9807;SDS011;4943;52.550;13.462;2023-07-29T12:28:26;581.60;;;535.27;;
9807;SDS011;4943;52.550;13.462;2023-07-29T12:30:54;607.90;;;560.50;;
9807;SDS011;4943;52.550;13.462;2023-07-29T12:33:29;600.27;;;553.57;;
9807;SDS011;4943;52.550;13.462;2023-07-29T12:36:00;598.57;;;551.77;;
9807;SDS011;4943;52.550;13.462;2023-07-29T12:38:28;617.57;;;570.13;;
9807;SDS011;4943;52.550;13.462;2023-07-29T12:40:56;609.13;;;561.85;;
9807;SDS011;4943;52.550;13.462;2023-07-29T12:43:24;624.60;;;576.53;;
9807;SDS011;4943;52.550;13.462;2023-07-29T12:45:53;628.80;;;581.13;;
9807;SDS011;4943;52.550;13.462;2023-07-29T12:48:21;647.05;;;598.83;;
9807;SDS011;4943;52.550;13.462;2023-07-29T12:50:49;628.35;;;580.85;;
9807;SDS011;4943;52.550;13.462;2023-07-29T12:53:19;653.08;;;605.03;;
9807;SDS011;4943;52.550;13.462;2023-07-29T12:55:47;648.83;;;601.03;;
9807;SDS011;4943;52.550;13.462;2023-07-29T12:58:15;660.55;;;612.47;;
9807;SDS011;4943;52.550;13.462;2023-07-29T13:00:43;663.35;;;615.33;;
9807;SDS011;4943;52.550;13.462;2023-07-29T13:03:11;662.53;;;614.53;;
9807;SDS011;4943;52.550;13.462;2023-07-29T13:05:39;702.47;;;653.17;;
9807;SDS011;4943;52.550;13.462;2023-07-29T13:08:08;688.78;;;639.97;;
9807;SDS011;4943;52.550;13.462;2023-07-29T13:10:38;679.78;;;631.60;;
9807;SDS011;4943;52.550;13.462;2023-07-29T13:13:06;697.90;;;649.08;;
9807;SDS011;4943;52.550;13.462;2023-07-29T13:15:34;707.53;;;658.22;;
9807;SDS011;4943;52.550;13.462;2023-07-29T13:18:02;700.95;;;651.90;;
9807;SDS011;4943;52.550;13.462;2023-07-29T13:20:30;728.33;;;678.40;;
9807;SDS011;4943;52.550;13.462;2023-07-29T13:23:00;710.00;;;660.50;;
9807;SDS011;4943;52.550;13.462;2023-07-29T13:25:28;696.28;;;647.33;;
9807;SDS011;4943;52.550;13.462;2023-07-29T13:27:57;705.65;;;656.08;;
9807;SDS011;4943;52.550;13.462;2023-07-29T13:30:25;701.50;;;652.15;;
9807;SDS011;4943;52.550;13.462;2023-07-29T13:32:54;705.38;;;655.50;;
9807;SDS011;4943;52.550;13.462;2023-07-29T13:35:22;698.05;;;648.90;;
9807;SDS011;4943;52.550;13.462;2023-07-29T13:37:50;693.15;;;644.42;;
9807;SDS011;4943;52.550;13.462;2023-07-29T13:40:18;716.97;;;667.45;;
9807;SDS011;4943;52.550;13.462;2023-07-29T13:42:46;698.63;;;649.63;;
9807;SDS011;4943;52.550;13.462;2023-07-29T13:45:16;719.83;;;670.08;;
9807;SDS011;4943;52.550;13.462;2023-07-29T13:47:44;715.25;;;666.05;;
9807;SDS011;4943;52.550;13.462;2023-07-29T13:50:12;734.67;;;684.65;;
9807;SDS011;4943;52.550;13.462;2023-07-29T13:52:40;736.97;;;686.97;;
9807;SDS011;4943;52.550;13.462;2023-07-29T13:55:08;727.60;;;678.15;;
9807;SDS011;4943;52.550;13.462;2023-07-29T13:57:37;751.03;;;700.88;;
9807;SDS011;4943;52.550;13.462;2023-07-29T14:00:06;754.42;;;704.28;;
9807;SDS011;4943;52.550;13.462;2023-07-29T14:02:36;750.28;;;700.05;;
9807;SDS011;4943;52.550;13.462;2023-07-29T14:05:05;758.83;;;708.40;;
9807;SDS011;4943;52.550;13.462;2023-07-29T14:07:34;761.78;;;711.20;;
9807;SDS011;4943;52.550;13.462;2023-07-29T14:10:02;761.88;;;711.05;;
9807;SDS011;4943;52.550;13.462;2023-07-29T14:12:31;778.38;;;727.22;;
9807;SDS011;4943;52.550;13.462;2023-07-29T14:14:59;770.08;;;719.20;;
9807;SDS011;4943;52.550;13.462;2023-07-29T14:17:27;751.85;;;701.38;;
9807;SDS011;4943;52.550;13.462;2023-07-29T14:19:56;750.50;;;700.17;;